Time;durP1;ratioP1;P1;durP2;ratioP2;P2;SDS_P1;SDS_P2;PMS_P1;PMS_P2;Temp;Humidity;BMP_temperature;BMP_pressure;BME280_temperature;BME280_humidity;BME280_pressure;Samples;Min_cycle;Max_cycle;Signal;HPM_P1;HPM_P2
2022/11/03 00:01:33;;;;;;;5.43;1.17;;;12.50;99.90;;;;;;7404719;19;19926;-89
2022/11/03 00:04:02;;;;;;;6.40;1.63;;;12.50;99.90;;;;;;7409957;19;19918;-88
2022/11/03 00:06:31;;;;;;;9.18;0.98;;;12.50;99.90;;;;;;7411177;19;19922;-87
2022/11/03 00:09:01;;;;;;;5.35;0.93;;;12.40;99.90;;;;;;7406626;19;19919;-88
2022/11/03 00:11:34;;;;;;;7.78;1.40;;;12.40;99.90;;;;;;7406663;19;19918;-88
2022/11/03 00:14:04;;;;;;;8.20;0.93;;;12.40;99.90;;;;;;7407568;19;20285;-88
2022/11/03 00:16:34;;;;;;;9.32;1.77;;;12.40;99.90;;;;;;7406584;19;20356;-88
2022/11/03 00:19:03;;;;;;;8.43;0.80;;;12.40;99.90;;;;;;7408881;19;19984;-88
2022/11/03 00:21:32;;;;;;;6.72;0.90;;;12.50;99.90;;;;;;7409212;19;19922;-88
2022/11/03 00:24:01;;;;;;;7.13;1.10;;;12.50;99.90;;;;;;7408884;19;19997;-88
2022/11/03 00:26:34;;;;;;;5.78;0.88;;;12.50;99.90;;;;;;7406761;19;19946;-89
2022/11/03 00:29:09;;;;;;;10.57;1.60;;;12.70;99.90;;;;;;7406912;19;19966;-88
2022/11/03 00:31:39;;;;;;;8.02;0.82;;;12.70;99.90;;;;;;7405670;19;20280;-87
2022/11/03 00:34:09;;;;;;;4.82;0.50;;;12.60;99.90;;;;;;7406660;19;19917;-88
2022/11/03 00:36:39;;;;;;;6.38;1.00;;;12.50;99.90;;;;;;7405257;19;19923;-86
2022/11/03 00:39:09;;;;;;;4.53;0.70;;;12.60;99.90;;;;;;7410175;19;19911;-87
2022/11/03 00:41:41;;;;;;;8.80;0.95;;;12.70;99.90;;;;;;7408855;19;19915;-87
2022/11/03 00:44:12;;;;;;;10.05;1.40;;;12.80;99.90;;;;;;7406386;19;20325;-86
2022/11/03 00:46:41;;;;;;;7.07;1.45;;;12.80;99.90;;;;;;7410246;19;19918;-88
2022/11/03 00:49:09;;;;;;;8.50;1.10;;;12.80;99.90;;;;;;7406233;19;19910;-87
2022/11/03 00:51:38;;;;;;;5.93;0.88;;;12.70;99.90;;;;;;7405860;19;20285;-88
2022/11/03 00:54:08;;;;;;;4.82;0.73;;;12.70;99.90;;;;;;7406074;19;19915;-87
2022/11/03 00:56:40;;;;;;;;;;;12.60;99.90;;;;;;7407801;19;19915;-87
2022/11/03 00:59:11;;;;;;;6.00;1.35;;;12.60;99.90;;;;;;7406334;19;19918;-86
2022/11/03 01:01:42;;;;;;;5.00;0.80;;;12.60;99.90;;;;;;7404332;19;19918;-89
2022/11/03 01:06:55;;;;;;;7.47;1.13;;;12.60;99.90;;;;;;7410231;19;19932;-87
2022/11/03 01:09:26;;;;;;;6.95;1.15;;;12.60;99.90;;;;;;7405860;19;19911;-87
2022/11/03 01:12:03;;;;;;;6.70;1.13;;;12.50;99.90;;;;;;7407745;19;19917;-87
2022/11/03 01:14:35;;;;;;;6.82;1.13;;;12.50;99.90;;;;;;7409525;19;19918;-87
2022/11/03 01:17:06;;;;;;;8.32;0.95;;;12.60;99.90;;;;;;7404505;19;19978;-88
2022/11/03 01:19:34;;;;;;;5.65;0.70;;;12.50;99.90;;;;;;7407571;19;19919;-86
2022/11/03 01:22:04;;;;;;;8.57;0.90;;;12.50;99.90;;;;;;7405395;19;19920;-88
2022/11/03 01:24:33;;;;;;;5.78;1.08;;;12.50;99.90;;;;;;7405268;19;19966;-88
2022/11/03 01:27:04;;;;;;;8.25;1.00;;;12.60;99.90;;;;;;7405084;19;19925;-87
2022/11/03 01:29:34;;;;;;;8.07;1.38;;;12.50;99.90;;;;;;7406592;19;19924;-88
2022/11/03 01:32:03;;;;;;;6.45;0.63;;;12.40;99.90;;;;;;7403931;19;20061;-87
2022/11/03 01:34:32;;;;;;;5.85;0.50;;;12.30;99.90;;;;;;7405204;19;20268;-86
2022/11/03 01:37:01;;;;;;;9.73;1.50;;;12.20;99.90;;;;;;7403406;19;19915;-87
2022/11/03 01:39:30;;;;;;;6.50;1.10;;;12.20;99.90;;;;;;7404653;19;20030;-87
2022/11/03 01:41:59;;;;;;;8.13;0.75;;;12.00;99.90;;;;;;7405270;19;19986;-87
2022/11/03 01:44:36;;;;;;;7.10;1.08;;;12.00;99.90;;;;;;7407661;19;19918;-87
2022/11/03 01:47:13;;;;;;;6.03;0.55;;;12.00;99.90;;;;;;7408481;19;19914;-87
2022/11/03 01:49:48;;;;;;;6.95;0.80;;;11.90;99.90;;;;;;7404680;19;20301;-87
2022/11/03 01:52:22;;;;;;;7.38;0.73;;;11.90;99.90;;;;;;7404634;19;19978;-88
2022/11/03 01:54:56;;;;;;;5.82;0.98;;;12.00;99.90;;;;;;7407142;19;19918;-87
2022/11/03 01:57:30;;;;;;;9.45;1.05;;;12.00;99.90;;;;;;7402814;19;19914;-88
2022/11/03 02:00:04;;;;;;;8.73;2.00;;;12.10;99.90;;;;;;7403985;19;19926;-88
2022/11/03 02:02:33;;;;;;;5.60;1.02;;;12.00;99.90;;;;;;7406891;19;20349;-87
2022/11/03 02:05:04;;;;;;;6.82;0.65;;;12.00;99.90;;;;;;7407156;19;19934;-88
2022/11/03 02:07:38;;;;;;;8.25;1.08;;;12.10;99.90;;;;;;7404665;19;19926;-88
2022/11/03 02:10:08;;;;;;;7.57;0.65;;;12.00;99.90;;;;;;7400531;19;19960;-88
2022/11/03 02:12:38;;;;;;;4.35;0.65;;;12.00;99.90;;;;;;7404526;19;19918;-86
2022/11/03 02:15:13;;;;;;;8.98;0.75;;;12.00;99.90;;;;;;7406962;19;19925;-89
2022/11/03 02:17:43;;;;;;;9.90;1.13;;;12.00;99.90;;;;;;7403449;19;19921;-87
2022/11/03 02:20:15;;;;;;;7.90;0.95;;;12.00;99.90;;;;;;7407082;19;20268;-88
2022/11/03 02:23:05;;;;;;;7.72;0.95;;;11.80;99.90;;;;;;7406892;19;19939;-88
2022/11/03 02:25:44;;;;;;;7.40;1.27;;;11.80;99.90;;;;;;7406425;19;19926;-87
2022/11/03 02:28:15;;;;;;;6.55;1.10;;;11.80;99.90;;;;;;7403876;19;19922;-88
2022/11/03 02:30:48;;;;;;;10.13;1.48;;;11.80;99.90;;;;;;7403268;19;19953;-87
2022/11/03 02:33:32;;;;;;;9.02;1.30;;;11.80;99.90;;;;;;7403102;19;19911;-87
2022/11/03 02:36:06;;;;;;;10.48;0.82;;;11.80;99.90;;;;;;7405025;19;19915;-87
2022/11/03 02:38:39;;;;;;;6.18;0.73;;;11.80;99.90;;;;;;7405238;19;19917;-87
2022/11/03 02:41:11;;;;;;;6.65;1.48;;;11.80;99.90;;;;;;7403153;19;20355;-87
2022/11/03 02:43:41;;;;;;;5.20;1.00;;;11.70;99.90;;;;;;7403314;19;19911;-88
2022/11/03 02:46:10;;;;;;;;;;;11.90;99.90;;;;;;7404859;19;19910;-88
2022/11/03 02:48:39;;;;;;;9.32;0.98;;;12.00;99.90;;;;;;7403221;19;19934;-86
2022/11/03 02:51:08;;;;;;;6.75;0.68;;;12.00;99.90;;;;;;7402646;19;19938;-88
2022/11/03 02:53:42;;;;;;;8.38;1.30;;;11.80;99.90;;;;;;7403681;19;19918;-88
2022/11/03 02:56:18;;;;;;;7.60;0.82;;;11.80;99.90;;;;;;7404361;19;19979;-87
2022/11/03 02:58:55;;;;;;;8.63;0.70;;;11.90;99.90;;;;;;7401922;19;20339;-87
2022/11/03 03:01:31;;;;;;;7.30;0.90;;;12.00;99.90;;;;;;7404409;19;19933;-87
2022/11/03 03:04:03;;;;;;;9.68;1.20;;;12.00;99.90;;;;;;7402575;19;19948;-87
2022/11/03 03:06:38;;;;;;;9.27;1.13;;;12.10;99.90;;;;;;7401968;19;19919;-87
2022/11/03 03:09:09;;;;;;;6.85;0.77;;;12.00;99.90;;;;;;7401832;19;19922;-88
2022/11/03 03:11:45;;;;;;;9.18;1.40;;;12.10;99.90;;;;;;7405662;19;19947;-87
2022/11/03 03:14:17;;;;;;;10.10;1.73;;;12.00;99.90;;;;;;7405648;19;19922;-88
2022/11/03 03:16:54;;;;;;;9.52;0.73;;;12.10;99.90;;;;;;7399584;19;19914;-88
2022/11/03 03:19:30;;;;;;;7.10;1.15;;;12.10;99.90;;;;;;7405666;19;19998;-88
2022/11/03 03:22:02;;;;;;;7.03;1.30;;;12.10;99.90;;;;;;7408971;19;19915;-89
2022/11/03 03:24:39;;;;;;;6.80;2.42;;;12.00;99.90;;;;;;7412083;19;19919;-87
2022/11/03 03:27:14;;;;;;;6.22;0.82;;;11.90;99.90;;;;;;7408786;19;20254;-88
2022/11/03 03:29:47;;;;;;;8.15;0.82;;;11.70;99.90;;;;;;7408402;19;19925;-88
2022/11/03 03:32:20;;;;;;;7.28;0.90;;;11.70;99.90;;;;;;7408554;19;19914;-88
2022/11/03 03:34:52;;;;;;;7.35;1.48;;;11.60;99.90;;;;;;7408391;19;20382;-89
2022/11/03 03:37:22;;;;;;;5.18;0.60;;;11.50;99.90;;;;;;7406453;19;19958;-88
2022/11/03 03:39:54;;;;;;;6.10;1.98;;;11.60;99.90;;;;;;7408088;19;19932;-88
2022/11/03 03:42:29;;;;;;;6.97;0.75;;;11.50;99.90;;;;;;7408043;19;20277;-89
2022/11/03 03:44:59;;;;;;;8.57;0.80;;;11.60;99.90;;;;;;7409978;19;19911;-88
2022/11/03 03:47:31;;;;;;;8.75;1.08;;;11.70;99.90;;;;;;7411706;19;19914;-88
2022/11/03 03:50:00;;;;;;;5.65;0.47;;;11.90;99.90;;;;;;7407888;19;19932;-89
2022/11/03 03:52:30;;;;;;;5.75;0.60;;;11.80;99.90;;;;;;7407934;19;19915;-88
2022/11/03 03:54:59;;;;;;;7.28;0.80;;;11.90;99.90;;;;;;7407590;19;19914;-88
2022/11/03 03:57:33;;;;;;;5.40;0.90;;;11.90;99.90;;;;;;7405841;19;19978;-89
2022/11/03 04:00:03;;;;;;;4.90;0.70;;;11.90;99.90;;;;;;7408241;19;19986;-87
2022/11/03 04:02:32;;;;;;;4.93;0.52;;;11.90;99.90;;;;;;7410411;19;19931;-87
2022/11/03 04:05:00;;;;;;;5.20;1.20;;;11.90;99.90;;;;;;7407427;19;19915;-87
2022/11/03 04:10:11;;;;;;;5.95;1.05;;;12.00;99.90;;;;;;7407517;19;19926;-88
2022/11/03 04:23:31;;;;;;;4.55;0.95;;;12.30;99.90;;;;;;7406780;19;19929;-88
2022/11/03 04:26:01;;;;;;;7.82;0.98;;;12.30;99.90;;;;;;7406722;19;19918;-87
2022/11/03 04:28:32;;;;;;;8.02;1.00;;;12.30;99.90;;;;;;7407053;19;19937;-88
2022/11/03 04:31:01;;;;;;;7.45;1.17;;;12.20;99.90;;;;;;7406929;19;19918;-88
2022/11/03 04:33:31;;;;;;;;;;;12.20;99.90;;;;;;7407853;19;19919;-88
2022/11/03 04:36:01;;;;;;;6.22;0.68;;;12.20;99.90;;;;;;7408993;19;19919;-89
2022/11/03 04:38:31;;;;;;;5.07;0.70;;;12.20;99.90;;;;;;7410816;19;20328;-87
2022/11/03 04:41:02;;;;;;;9.95;1.35;;;12.20;99.90;;;;;;7411018;19;19923;-88
2022/11/03 04:43:39;;;;;;;9.20;1.00;;;12.20;99.90;;;;;;7406638;19;19919;-89
2022/11/03 04:46:12;;;;;;;6.72;1.52;;;12.10;99.90;;;;;;7406346;19;19914;-88
2022/11/03 04:48:41;;;;;;;5.60;0.47;;;12.00;99.90;;;;;;7406677;19;19915;-90
2022/11/03 04:51:16;;;;;;;4.35;0.70;;;11.90;99.90;;;;;;7406967;19;20240;-88
2022/11/03 04:53:51;;;;;;;6.45;1.00;;;11.80;99.90;;;;;;7409751;19;19930;-88
2022/11/03 04:56:23;;;;;;;7.18;1.23;;;11.80;99.90;;;;;;7407322;19;19935;-87
2022/11/03 04:58:55;;;;;;;5.72;1.27;;;11.80;99.90;;;;;;7409070;19;19938;-88
2022/11/03 05:01:26;;;;;;;6.70;1.13;;;11.70;99.90;;;;;;7404572;19;19919;-87
2022/11/03 05:03:56;;;;;;;7.03;0.77;;;11.60;99.90;;;;;;7406146;19;19922;-87
2022/11/03 05:06:28;;;;;;;9.10;1.40;;;11.40;99.90;;;;;;7404483;19;19982;-88
2022/11/03 05:09:00;;;;;;;6.45;1.00;;;11.30;99.90;;;;;;7405546;19;19982;-88
2022/11/03 05:11:32;;;;;;;8.80;1.30;;;11.20;99.90;;;;;;7407488;19;19929;-88
2022/11/03 05:14:08;;;;;;;8.93;1.92;;;11.10;99.90;;;;;;7405515;19;19914;-89
2022/11/03 05:16:37;;;;;;;11.65;0.90;;;10.90;99.90;;;;;;7405626;19;19922;-88
2022/11/03 05:19:11;;;;;;;6.97;1.20;;;10.80;99.90;;;;;;7405894;19;19910;-89
2022/11/03 05:21:39;;;;;;;9.07;1.83;;;10.80;99.90;;;;;;7405957;19;19914;-88
2022/11/03 05:24:14;;;;;;;8.05;0.98;;;10.70;99.90;;;;;;7405436;19;19914;-89
2022/11/03 05:26:44;;;;;;;8.18;0.73;;;10.70;99.90;;;;;;7407348;19;19974;-88
2022/11/03 05:29:18;;;;;;;5.95;1.42;;;10.80;99.90;;;;;;7407475;19;20009;-89
2022/11/03 05:31:49;;;;;;;5.25;0.43;;;10.90;99.90;;;;;;7405203;19;19911;-88
2022/11/03 05:34:33;;;;;;;7.35;1.48;;;11.10;99.90;;;;;;7404933;19;19926;-89
2022/11/03 05:37:09;;;;;;;9.15;1.15;;;11.30;99.90;;;;;;7407863;19;20352;-88
2022/11/03 05:39:41;;;;;;;3.75;0.50;;;11.40;99.90;;;;;;7405262;19;19933;-89
2022/11/03 05:42:28;;;;;;;7.63;1.48;;;11.50;99.90;;;;;;7405167;19;19911;-88
2022/11/03 05:45:02;;;;;;;4.95;1.30;;;11.70;99.90;;;;;;7405134;19;19918;-88
2022/11/03 05:47:35;;;;;;;6.68;0.60;;;11.80;99.90;;;;;;7404601;19;19958;-89
2022/11/03 05:50:17;;;;;;;6.05;1.35;;;11.80;99.90;;;;;;7404583;19;19919;-89
2022/11/03 05:52:48;;;;;;;5.63;0.90;;;11.60;99.90;;;;;;7407265;19;19922;-89
2022/11/03 05:55:28;;;;;;;4.97;1.17;;;11.50;99.90;;;;;;7407176;19;19918;-89
2022/11/03 05:57:59;;;;;;;4.45;0.60;;;11.50;99.90;;;;;;7403031;19;19918;-88
2022/11/03 06:00:33;;;;;;;5.13;0.57;;;11.40;99.90;;;;;;7404315;19;19921;-88
2022/11/03 06:03:03;;;;;;;5.28;0.60;;;11.50;99.90;;;;;;7407347;19;19920;-89
2022/11/03 06:05:33;;;;;;;8.27;0.77;;;11.60;99.90;;;;;;7403904;19;19921;-88
2022/11/03 06:08:05;;;;;;;5.40;0.98;;;11.80;99.90;;;;;;7403325;19;19915;-89
2022/11/03 06:10:41;;;;;;;6.85;0.65;;;12.00;99.90;;;;;;7404183;19;19978;-88
2022/11/03 06:13:15;;;;;;;6.10;0.85;;;12.00;99.90;;;;;;7404075;19;19922;-89
2022/11/03 06:15:49;;;;;;;3.65;0.45;;;12.00;99.90;;;;;;7403355;19;19921;-88
2022/11/03 06:18:20;;;;;;;5.50;0.75;;;12.00;99.90;;;;;;7405221;19;19918;-88
2022/11/03 06:20:53;;;;;;;6.13;0.55;;;12.00;99.90;;;;;;7407716;19;19926;-88
2022/11/03 06:23:22;;;;;;;3.88;0.60;;;12.00;99.90;;;;;;7403769;19;20349;-88
2022/11/03 06:25:53;;;;;;;7.10;1.20;;;11.90;99.90;;;;;;7402756;19;19921;-88
2022/11/03 06:28:25;;;;;;;9.02;0.90;;;11.80;99.90;;;;;;7405516;19;19915;-88
2022/11/03 06:30:57;;;;;;;7.22;0.98;;;11.50;99.90;;;;;;7403707;19;19921;-89
2022/11/03 06:33:28;;;;;;;6.45;0.68;;;11.40;99.90;;;;;;7403522;19;19918;-88
2022/11/03 06:36:03;;;;;;;5.50;1.42;;;11.20;99.90;;;;;;7407323;19;20032;-89
2022/11/03 06:38:35;;;;;;;8.93;1.63;;;11.30;99.90;;;;;;7402526;19;19911;-90
2022/11/03 06:41:04;;;;;;;36.35;6.07;;;11.30;99.90;;;;;;7403431;19;19922;-89
2022/11/03 06:43:41;;;;;;;9.10;1.23;;;11.40;99.90;;;;;;7403501;19;19922;-87
2022/11/03 06:46:20;;;;;;;8.32;1.30;;;11.40;99.90;;;;;;7402666;19;19917;-88
2022/11/03 06:48:49;;;;;;;9.35;0.80;;;11.60;99.90;;;;;;7403460;19;19922;-90
2022/11/03 06:51:22;;;;;;;8.85;1.35;;;11.80;99.90;;;;;;7404138;19;19998;-87
2022/11/03 06:53:54;;;;;;;7.68;1.58;;;12.20;99.90;;;;;;7411421;19;19919;-96
2022/11/03 06:56:26;;;;;;;9.10;1.67;;;12.30;99.90;;;;;;7413305;19;19939;-95
2022/11/03 06:58:57;;;;;;;3.85;0.50;;;12.50;99.90;;;;;;7408562;19;19923;-93
2022/11/03 07:01:35;;;;;;;6.07;0.70;;;12.60;99.90;;;;;;7408025;19;20348;-92
2022/11/03 07:04:08;;;;;;;4.78;1.52;;;12.60;99.90;;;;;;7409678;19;20401;-94
2022/11/03 07:06:38;;;;;;;6.95;0.95;;;12.60;99.90;;;;;;7406935;19;20306;-89
2022/11/03 07:09:14;;;;;;;5.47;0.47;;;12.40;99.90;;;;;;7411493;19;20409;-89
2022/11/03 07:11:46;;;;;;;9.30;1.65;;;12.60;99.90;;;;;;7411544;19;20348;-89
2022/11/03 07:14:18;;;;;;;8.13;0.85;;;12.60;99.90;;;;;;7407612;19;20268;-90
2022/11/03 07:16:51;;;;;;;6.05;1.50;;;12.70;99.90;;;;;;7410947;19;19925;-90
2022/11/03 07:19:22;;;;;;;6.35;1.17;;;12.90;99.90;;;;;;7405785;19;19923;-87
2022/11/03 07:21:53;;;;;;;7.40;0.90;;;12.80;99.90;;;;;;7410439;19;20385;-88
2022/11/03 07:24:25;;;;;;;4.63;1.25;;;12.80;99.90;;;;;;7409714;19;19946;-87
2022/11/03 07:27:00;;;;;;;5.82;1.30;;;13.00;99.90;;;;;;7405770;19;19910;-87
2022/11/03 07:29:30;;;;;;;10.00;0.85;;;12.80;99.90;;;;;;7405496;19;20290;-88
2022/11/03 07:32:02;;;;;;;6.47;1.20;;;12.70;99.90;;;;;;7405819;19;20340;-90
2022/11/03 07:34:34;;;;;;;5.75;1.33;;;12.50;99.90;;;;;;7407454;19;19915;-88
2022/11/03 07:37:04;;;;;;;6.55;0.77;;;12.40;99.90;;;;;;7407472;19;19986;-87
2022/11/03 07:39:38;;;;;;;6.25;1.60;;;12.30;99.90;;;;;;7407756;19;19921;-89
2022/11/03 07:42:16;;;;;;;7.20;1.05;;;12.30;99.90;;;;;;7407928;19;19915;-88
2022/11/03 07:44:45;;;;;;;7.88;1.25;;;12.40;99.90;;;;;;7408018;19;20340;-88
2022/11/03 07:47:21;;;;;;;11.23;1.17;;;12.40;99.90;;;;;;7406377;19;19978;-88
2022/11/03 07:49:50;;;;;;;5.72;0.90;;;12.30;99.90;;;;;;7409283;19;19986;-88
2022/11/03 07:52:23;;;;;;;6.93;0.60;;;12.40;99.90;;;;;;7407146;19;19919;-88
2022/11/03 07:54:53;;;;;;;4.40;0.63;;;12.50;99.90;;;;;;7407342;19;19911;-88
2022/11/03 07:57:24;;;;;;;;;;;12.60;99.90;;;;;;7409615;19;19931;-88
2022/11/03 07:59:55;;;;;;;6.35;1.10;;;12.70;99.90;;;;;;7403819;19;19915;-87
2022/11/03 08:02:33;;;;;;;5.57;1.30;;;12.80;99.90;;;;;;7407408;19;19910;-87
2022/11/03 08:05:02;;;;;;;5.07;1.25;;;12.80;99.90;;;;;;7407023;19;19970;-89
2022/11/03 08:07:32;;;;;;;7.80;1.75;;;13.00;99.90;;;;;;7405438;19;19917;-89
2022/11/03 08:10:01;;;;;;;5.97;0.90;;;13.00;99.90;;;;;;7407316;19;19914;-89
2022/11/03 08:12:29;;;;;;;5.95;1.05;;;13.00;99.90;;;;;;7407344;19;20356;-88
2022/11/03 08:14:59;;;;;;;6.70;1.27;;;13.00;99.90;;;;;;7407533;19;19914;-90
2022/11/03 08:17:30;;;;;;;8.88;1.60;;;13.00;99.90;;;;;;7406503;19;19982;-89
2022/11/03 08:19:59;;;;;;;6.13;1.08;;;13.00;99.90;;;;;;7406996;19;19916;-88
2022/11/03 08:22:28;;;;;;;9.65;1.17;;;13.00;99.90;;;;;;7405377;19;19986;-90
2022/11/03 08:24:57;;;;;;;4.97;0.73;;;13.00;99.90;;;;;;7406915;19;20423;-88
2022/11/03 08:27:26;;;;;;;7.47;1.48;;;13.10;99.90;;;;;;7405095;19;19925;-88
2022/11/03 08:29:55;;;;;;;9.13;1.13;;;13.10;99.90;;;;;;7406442;19;19925;-88
2022/11/03 08:32:24;;;;;;;7.22;1.52;;;13.20;99.90;;;;;;7406719;19;20400;-87
2022/11/03 08:34:55;;;;;;;7.18;1.35;;;13.20;99.90;;;;;;7406748;19;19921;-89
2022/11/03 08:37:25;;;;;;;6.85;0.98;;;13.30;99.90;;;;;;7406482;19;19925;-89
2022/11/03 08:39:54;;;;;;;5.43;0.80;;;13.30;99.90;;;;;;7406993;19;19963;-88
2022/11/03 08:42:23;;;;;;;8.63;0.73;;;13.50;99.90;;;;;;7406501;19;20274;-87
2022/11/03 08:44:52;;;;;;;7.28;2.35;;;13.60;99.90;;;;;;7405108;19;19921;-88
2022/11/03 08:47:21;;;;;;;5.50;1.00;;;13.70;99.90;;;;;;7406322;19;19915;-89
2022/11/03 08:49:50;;;;;;;5.65;1.42;;;13.70;99.90;;;;;;7406100;19;19914;-87
2022/11/03 08:52:22;;;;;;;7.20;1.40;;;13.70;99.90;;;;;;7408884;19;20027;-87
2022/11/03 08:54:50;;;;;;;4.63;0.95;;;13.80;99.90;;;;;;7403933;19;19948;-88
2022/11/03 08:57:19;;;;;;;5.07;1.00;;;14.00;99.90;;;;;;7406003;19;19922;-87
2022/11/03 08:59:48;;;;;;;6.38;1.10;;;13.90;99.90;;;;;;7404218;19;19922;-87
2022/11/03 09:02:17;;;;;;;5.82;0.65;;;14.00;99.90;;;;;;7405893;19;19915;-88
2022/11/03 09:04:46;;;;;;;7.53;0.90;;;14.10;99.90;;;;;;7405731;19;20373;-90
2022/11/03 09:07:15;;;;;;;4.57;0.70;;;14.10;99.90;;;;;;7405749;19;19926;-88
2022/11/03 09:09:46;;;;;;;6.45;1.50;;;14.20;99.90;;;;;;7404000;19;20282;-87
2022/11/03 09:12:15;;;;;;;6.22;0.65;;;14.20;99.90;;;;;;7406067;19;19926;-87
2022/11/03 09:14:44;;;;;;;4.68;0.75;;;14.30;99.90;;;;;;7405917;19;19911;-87
2022/11/03 09:17:13;;;;;;;6.15;0.70;;;14.30;99.90;;;;;;7405627;19;19925;-88
2022/11/03 09:19:42;;;;;;;8.02;1.25;;;14.20;99.90;;;;;;7402906;19;19914;-88
2022/11/03 09:22:11;;;;;;;7.55;1.50;;;14.30;99.90;;;;;;7404974;19;19925;-88
2022/11/03 09:24:40;;;;;;;5.82;0.63;;;14.30;99.90;;;;;;7404786;19;19929;-88
2022/11/03 09:27:12;;;;;;;8.35;1.58;;;14.60;99.90;;;;;;7402349;19;19923;-88
2022/11/03 09:29:41;;;;;;;4.78;1.15;;;14.40;99.90;;;;;;7405245;19;19919;-87
2022/11/03 09:32:10;;;;;;;5.95;0.80;;;14.50;99.90;;;;;;7405213;19;20269;-88
2022/11/03 09:34:39;;;;;;;6.43;1.15;;;14.50;99.90;;;;;;7404823;19;19926;-88
2022/11/03 09:37:08;;;;;;;6.07;1.35;;;14.50;99.90;;;;;;7405463;19;19978;-89
2022/11/03 09:39:38;;;;;;;3.95;0.93;;;14.50;99.90;;;;;;7403397;19;19921;-88
2022/11/03 09:42:12;;;;;;;7.15;1.10;;;14.60;99.90;;;;;;7404675;19;20271;-89
2022/11/03 09:44:41;;;;;;;7.47;1.58;;;14.50;99.90;;;;;;7404444;19;19910;-86
2022/11/03 09:47:23;;;;;;;6.32;0.70;;;14.70;99.90;;;;;;7404394;19;19922;-87
2022/11/03 09:49:53;;;;;;;2.03;0.40;;;14.70;99.90;;;;;;7405392;19;20345;-89
2022/11/03 09:52:24;;;;;;;4.13;0.90;;;14.70;99.90;;;;;;7404472;19;19910;-89
2022/11/03 09:54:58;;;;;;;4.53;1.45;;;14.70;99.90;;;;;;7403808;19;20280;-89
2022/11/03 09:57:30;;;;;;;6.03;0.85;;;14.60;99.90;;;;;;7404578;19;19970;-88
2022/11/03 09:59:59;;;;;;;5.50;0.60;;;14.80;99.90;;;;;;7402449;19;19911;-89
2022/11/03 10:02:30;;;;;;;5.15;0.95;;;15.00;99.90;;;;;;7404770;19;19935;-86
2022/11/03 10:05:01;;;;;;;5.78;0.98;;;15.00;99.90;;;;;;7403898;19;19919;-88
2022/11/03 10:07:32;;;;;;;4.45;0.75;;;15.10;99.90;;;;;;7403971;19;20263;-89
2022/11/03 10:10:02;;;;;;;10.43;1.83;;;15.00;99.90;;;;;;7404003;19;19927;-88
2022/11/03 10:12:38;;;;;;;9.05;1.30;;;15.10;99.90;;;;;;7404848;19;19915;-88
2022/11/03 10:15:09;;;;;;;8.63;0.98;;;15.10;99.90;;;;;;7403853;19;19922;-88
2022/11/03 10:17:38;;;;;;;5.82;0.73;;;15.10;99.90;;;;;;7404426;19;19954;-88
2022/11/03 10:20:12;;;;;;;5.85;1.20;;;14.90;99.90;;;;;;7402221;19;19918;-87
2022/11/03 10:22:42;;;;;;;3.78;0.80;;;15.10;99.90;;;;;;7403850;19;19919;-88
2022/11/03 10:25:26;;;;;;;;;;;15.10;99.90;;;;;;7405617;19;19911;-89
2022/11/03 10:28:16;;;;;;;6.20;0.60;;;15.20;99.90;;;;;;7403167;19;19919;-88
2022/11/03 10:30:53;;;;;;;6.90;1.58;;;15.40;99.90;;;;;;7406132;19;20017;-89
2022/11/03 10:33:30;;;;;;;5.28;0.57;;;15.30;99.90;;;;;;7410378;19;20291;-87
2022/11/03 10:36:00;;;;;;;4.13;0.32;;;15.40;99.90;;;;;;7407672;19;19919;-88
2022/11/03 10:38:32;;;;;;;7.57;1.10;;;15.50;99.90;;;;;;7409094;19;19915;-89
2022/11/03 10:41:23;;;;;;;4.20;0.68;;;15.40;99.90;;;;;;7410165;19;19977;-88
2022/11/03 10:44:19;;;;;;;6.30;1.10;;;15.30;99.90;;;;;;7409107;19;20229;-89
2022/11/03 10:46:59;;;;;;;10.23;0.70;;;15.40;99.90;;;;;;7409667;19;19931;-88
2022/11/03 10:49:30;;;;;;;5.97;0.75;;;15.40;99.90;;;;;;7411836;19;19910;-89
2022/11/03 10:52:19;;;;;;;5.38;0.82;;;15.50;99.90;;;;;;7409826;19;19919;-88
2022/11/03 10:54:49;;;;;;;7.13;1.13;;;15.50;99.90;;;;;;7409163;19;20274;-88
2022/11/03 10:57:19;;;;;;;4.45;1.40;;;15.50;99.90;;;;;;7409119;19;19928;-87
2022/11/03 10:59:53;;;;;;;6.85;1.10;;;15.60;99.90;;;;;;7407081;19;19922;-89
2022/11/03 11:02:25;;;;;;;7.40;1.65;;;15.60;99.90;;;;;;7409574;19;19931;-89
2022/11/03 11:04:59;;;;;;;8.15;1.55;;;15.60;99.90;;;;;;7409179;19;20286;-88
2022/11/03 11:07:40;;;;;;;6.75;0.82;;;15.60;99.90;;;;;;7410469;19;19936;-89
2022/11/03 11:10:16;;;;;;;5.55;0.65;;;15.60;99.90;;;;;;7409833;19;19922;-90
2022/11/03 11:13:08;;;;;;;8.93;0.77;;;15.60;99.90;;;;;;7409311;19;19921;-90
2022/11/03 11:15:41;;;;;;;5.63;0.47;;;15.50;99.90;;;;;;7408607;19;20316;-88
2022/11/03 11:18:10;;;;;;;8.52;0.90;;;15.40;99.90;;;;;;7409029;19;19917;-88
2022/11/03 11:20:40;;;;;;;4.68;0.73;;;15.40;99.90;;;;;;7405659;19;19937;-88
2022/11/03 11:23:24;;;;;;;;;;;15.50;99.90;;;;;;7400160;19;20011;-90
2022/11/03 11:26:08;;;;;;;7.68;0.80;;;15.40;99.90;;;;;;7399959;19;19915;-88
2022/11/03 11:28:38;;;;;;;6.43;0.95;;;15.30;99.90;;;;;;7404623;19;20005;-88
2022/11/03 11:31:35;;;;;;;3.50;1.10;;;15.10;99.90;;;;;;7411260;19;19954;-89
2022/11/03 11:34:34;;;;;;;6.53;1.55;;;15.20;99.90;;;;;;7410562;19;19924;-94
2022/11/03 11:37:34;;;;;;;6.47;1.48;;;15.20;99.90;;;;;;7408770;19;19910;-91
2022/11/03 11:40:03;;;;;;;8.10;1.30;;;15.20;99.90;;;;;;7407291;19;19922;-92
2022/11/03 11:42:33;;;;;;;4.63;0.77;;;15.30;99.90;;;;;;7409246;19;20257;-94
2022/11/03 11:45:06;;;;;;;4.03;0.73;;;15.30;99.90;;;;;;7409505;19;19915;-92
2022/11/03 11:47:47;;;;;;;5.10;1.08;;;15.30;99.90;;;;;;7411193;19;19943;-92
2022/11/03 11:50:30;;;;;;;8.95;0.85;;;15.20;99.90;;;;;;7408522;19;19914;-84
2022/11/03 11:53:06;;;;;;;4.60;0.95;;;15.20;99.90;;;;;;7408999;19;19919;-84
2022/11/03 11:55:43;;;;;;;5.57;1.02;;;15.20;99.90;;;;;;7407292;19;19919;-85
2022/11/03 11:58:20;;;;;;;8.27;1.38;;;15.20;99.90;;;;;;7407790;19;19922;-83
2022/11/03 12:00:55;;;;;;;5.30;0.70;;;15.30;99.90;;;;;;7404711;19;20357;-84
2022/11/03 12:03:35;;;;;;;5.90;0.70;;;15.30;99.90;;;;;;7409175;19;19922;-84
2022/11/03 12:06:04;;;;;;;6.68;0.90;;;15.30;99.90;;;;;;7407528;19;19922;-84
2022/11/03 12:08:36;;;;;;;6.10;0.60;;;15.30;99.90;;;;;;7410214;19;20285;-88
2022/11/03 12:11:07;;;;;;;6.07;1.20;;;15.30;99.90;;;;;;7403488;19;20015;-89
2022/11/03 12:13:48;;;;;;;4.13;0.85;;;15.20;99.90;;;;;;7409653;19;19952;-91
2022/11/03 12:16:36;;;;;;;9.23;0.93;;;15.20;99.90;;;;;;7413462;19;19950;-85
2022/11/03 12:19:35;;;;;;;5.53;0.82;;;15.20;99.90;;;;;;7408137;19;20355;-87
2022/11/03 12:22:09;;;;;;;5.70;0.82;;;15.20;99.90;;;;;;7407081;19;19915;-88
2022/11/03 12:24:50;;;;;;;6.03;0.80;;;15.10;99.90;;;;;;7407092;19;19921;-88
2022/11/03 12:27:44;;;;;;;7.18;1.45;;;15.10;99.90;;;;;;7407134;19;19915;-87
2022/11/03 12:30:18;;;;;;;5.75;1.50;;;15.20;99.90;;;;;;7403735;19;19943;-86
2022/11/03 12:32:48;;;;;;;5.78;0.40;;;15.20;99.90;;;;;;7406810;19;20271;-87
2022/11/03 12:35:16;;;;;;;;;;;15.20;99.90;;;;;;7409176;19;20424;-87
2022/11/03 12:37:48;;;;;;;7.25;0.50;;;15.20;99.90;;;;;;7406992;19;19911;-88
2022/11/03 12:40:17;;;;;;;6.50;1.38;;;15.20;99.90;;;;;;7405361;19;19914;-87
2022/11/03 12:42:47;;;;;;;3.30;0.60;;;15.20;99.90;;;;;;7406634;19;19974;-87
2022/11/03 12:45:15;;;;;;;4.97;0.60;;;15.20;99.90;;;;;;7406414;19;19993;-87
2022/11/03 12:47:44;;;;;;;4.53;0.70;;;15.20;99.90;;;;;;7411494;19;20241;-88
2022/11/03 12:50:14;;;;;;;5.53;0.70;;;15.10;99.90;;;;;;7406124;19;20337;-87
2022/11/03 12:52:43;;;;;;;5.80;0.95;;;15.20;99.90;;;;;;7405289;19;20279;-87
2022/11/03 12:55:14;;;;;;;5.97;0.40;;;15.20;99.90;;;;;;7406216;19;19915;-86
2022/11/03 12:57:44;;;;;;;5.93;0.57;;;15.10;99.90;;;;;;7405966;19;20568;-88
2022/11/03 13:00:14;;;;;;;;;;;15.10;99.90;;;;;;7407193;19;19991;-88
2022/11/03 13:02:43;;;;;;;7.90;1.40;;;15.00;99.90;;;;;;7405945;19;20286;-86
2022/11/03 13:05:14;;;;;;;7.70;1.23;;;15.00;99.90;;;;;;7405916;19;19926;-87
2022/11/03 13:07:43;;;;;;;6.43;0.75;;;14.90;99.90;;;;;;7405803;19;19935;-88
2022/11/03 13:10:15;;;;;;;6.18;1.15;;;14.90;99.90;;;;;;7405583;19;19915;-87
2022/11/03 13:12:45;;;;;;;5.85;0.63;;;14.80;99.90;;;;;;7405663;19;19919;-88
2022/11/03 13:15:15;;;;;;;6.07;0.65;;;14.80;99.90;;;;;;7405786;19;19915;-87
2022/11/03 13:17:45;;;;;;;7.15;1.20;;;14.80;99.90;;;;;;7405445;19;19978;-87
2022/11/03 13:20:16;;;;;;;5.47;0.63;;;14.90;99.90;;;;;;7404547;19;20272;-86
2022/11/03 13:22:45;;;;;;;4.93;1.15;;;14.80;99.90;;;;;;7405249;19;20388;-88
2022/11/03 13:25:17;;;;;;;5.35;0.80;;;14.80;99.90;;;;;;7404928;19;19914;-88
2022/11/03 13:27:52;;;;;;;5.30;0.63;;;14.70;99.90;;;;;;7405045;19;19918;-87
2022/11/03 13:30:21;;;;;;;3.92;1.00;;;14.70;99.90;;;;;;7403952;19;19918;-88
2022/11/03 13:32:50;;;;;;;5.85;0.65;;;14.80;99.90;;;;;;7405336;19;19966;-87